Terminal Aerodrome Forecast
Issued by NWS

Home | Current Version | Previous Version | Graphics & Text | Print | Product List | Glossary On
Versions: 1 2 3 4 5 6 7 8 9 10 11 12 13 14 15 16 17
212
FTUS43 KBIS 221123
TAFMOT
TAF
KMOT 221123Z 2212/2312 13016G24KT P6SM OVC045
     FM221400 13016G24KT P6SM OVC025
     FM222100 15016G25KT P6SM BKN035
     FM230100 15011KT P6SM BKN110
     FM230400 16009KT P6SM SCT110=

USA.gov is the U.S. government's official web portal to all federal, state and local government web resources and services.